createdAt,value
2023-04-09T00:00:10.619Z,20.66
2023-04-09T00:05:41.286Z,20.19
2023-04-09T00:10:44.564Z,21.20
2023-04-09T00:15:48.374Z,20.63
2023-04-09T00:20:53.103Z,20.62
2023-04-09T00:25:56.449Z,21.75
2023-04-09T00:31:01.937Z,21.72
2023-04-09T00:36:06.928Z,19.03
2023-04-09T00:41:10.595Z,15.37
2023-04-09T00:46:17.189Z,16.22
2023-04-09T00:51:21.999Z,15.97
2023-04-09T00:56:31.037Z,16.56
2023-04-09T01:01:34.400Z,17.11
2023-04-09T01:06:44.476Z,16.23
2023-04-09T01:11:54.294Z,16.33
2023-04-09T01:17:01.829Z,16.05
2023-04-09T01:22:15.340Z,16.16
2023-04-09T01:27:21.335Z,16.05
2023-04-09T01:32:38.272Z,16.45
2023-04-09T01:37:42.899Z,16.88
2023-04-09T01:42:48.406Z,18.33
2023-04-09T01:47:54.435Z,18.64
2023-04-09T01:52:58.204Z,19.69
2023-04-09T01:58:01.565Z,20.22
2023-04-09T02:03:12.303Z,20.59
2023-04-09T02:08:21.107Z,20.03
2023-04-09T02:13:25.892Z,20.76
2023-04-09T02:18:33.499Z,21.33
2023-04-09T02:23:41.476Z,21.15
2023-04-09T02:28:46.926Z,20.76
2023-04-09T02:33:51.781Z,21.35
2023-04-09T02:38:57.557Z,21.39
2023-04-09T02:44:00.944Z,21.15
2023-04-09T02:49:08.814Z,21.09
2023-04-09T02:54:12.340Z,21.60
2023-04-09T02:59:17.986Z,20.79
2023-04-09T03:04:22.747Z,21.05
2023-04-09T03:09:26.284Z,21.32
2023-04-09T03:14:32.916Z,20.39
2023-04-09T03:19:41.152Z,20.02
2023-04-09T03:24:44.880Z,19.23
2023-04-09T03:29:50.344Z,20.61
2023-04-09T03:34:55.378Z,18.92
2023-04-09T03:39:59.259Z,19.18
2023-04-09T03:45:06.123Z,19.27
2023-04-09T03:50:20.200Z,21.49
2023-04-09T03:55:28.189Z,19.89
2023-04-09T04:00:32.262Z,19.77
2023-04-09T04:06:01.298Z,20.47
2023-04-09T04:11:09.545Z,20.56
2023-04-09T04:16:15.578Z,19.14
2023-04-09T04:21:22.731Z,20.98
2023-04-09T04:26:33.584Z,20.17
2023-04-09T04:31:37.165Z,20.49
2023-04-09T04:36:44.205Z,20.19
2023-04-09T04:41:47.700Z,20.26
2023-04-09T04:46:56.720Z,25.12
2023-04-09T04:52:01.624Z,20.95
2023-04-09T04:57:05.305Z,19.62
2023-04-09T05:02:12.843Z,18.86
2023-04-09T05:07:29.493Z,19.18
2023-04-09T05:12:34.405Z,19.57
2023-04-09T05:17:38.571Z,22.26
2023-04-09T05:22:45.108Z,24.52
2023-04-09T05:27:48.664Z,25.05
2023-04-09T05:32:52.052Z,27.27
2023-04-09T05:37:57.013Z,25.63
2023-04-09T05:43:03.383Z,25.83
2023-04-09T05:48:17.142Z,26.63
2023-04-09T05:53:22.849Z,26.66
2023-04-09T05:58:29.571Z,25.48
2023-04-09T06:03:34.608Z,25.30
2023-04-09T06:08:39.398Z,24.37
2023-04-09T06:13:42.714Z,24.32
2023-04-09T06:18:49.684Z,22.93
2023-04-09T06:23:54.712Z,23.13
2023-04-09T06:29:00.803Z,23.56
2023-04-09T06:34:04.161Z,24.13
2023-04-09T06:39:11.557Z,22.73
2023-04-09T06:44:15.083Z,22.09
2023-04-09T06:49:18.444Z,22.26
2023-04-09T06:54:25.469Z,21.72
2023-04-09T06:59:31.046Z,22.12
2023-04-09T07:04:37.014Z,23.39
2023-04-09T07:09:44.086Z,22.45
2023-04-09T07:14:47.502Z,21.26
2023-04-09T07:19:51.631Z,21.18
2023-04-09T07:24:58.692Z,24.22
2023-04-09T07:30:03.241Z,21.97
2023-04-09T07:35:09.744Z,21.39
2023-04-09T07:40:16.613Z,20.10
2023-04-09T07:45:20.019Z,20.70
2023-04-09T07:50:23.462Z,20.58
2023-04-09T07:55:30.465Z,20.23
2023-04-09T08:00:33.845Z,19.06
2023-04-09T08:05:38.101Z,19.13
2023-04-09T08:10:44.876Z,21.20
2023-04-09T08:15:50.858Z,20.80
2023-04-09T08:20:54.234Z,22.08
2023-04-09T08:25:58.920Z,21.77
2023-04-09T08:31:02.327Z,20.96
2023-04-09T08:36:09.160Z,18.55
2023-04-09T08:41:20.556Z,18.99
2023-04-09T08:46:24.320Z,18.96
2023-04-09T08:51:28.780Z,24.61
2023-04-09T08:56:33.536Z,18.43
2023-04-09T09:01:37.099Z,17.53
2023-04-09T09:06:41.430Z,20.84
2023-04-09T09:11:47.037Z,24.51
2023-04-09T09:17:05.600Z,23.21
2023-04-09T09:22:13.245Z,25.54
2023-04-09T09:27:31.509Z,24.16
2023-04-09T09:32:36.341Z,23.06
2023-04-09T09:37:43.522Z,23.14
2023-04-09T09:42:55.625Z,32.88
2023-04-09T09:48:04.212Z,23.43
2023-04-09T09:53:08.821Z,25.75
2023-04-09T09:58:17.642Z,25.08
2023-04-09T10:03:24.400Z,23.66
2023-04-09T10:08:33.465Z,21.66
2023-04-09T10:13:40.590Z,21.24
2023-04-09T10:18:45.439Z,22.64
2023-04-09T10:23:54.137Z,24.77
2023-04-09T10:29:11.697Z,24.38
2023-04-09T10:34:19.143Z,27.49
2023-04-09T10:39:27.680Z,24.21
2023-04-09T10:44:35.671Z,27.24
2023-04-09T10:49:44.567Z,25.22
2023-04-09T10:54:48.281Z,23.89
2023-04-09T10:59:52.309Z,23.28
2023-04-09T11:05:08.125Z,23.06
2023-04-09T11:10:13.831Z,23.55
2023-04-09T11:15:17.899Z,22.50
2023-04-09T11:20:24.105Z,23.48
2023-04-09T11:25:28.573Z,24.13
2023-04-09T11:30:34.508Z,23.98
2023-04-09T11:35:39.495Z,19.96
2023-04-09T11:40:48.417Z,16.27
2023-04-09T11:45:52.791Z,14.48
2023-04-09T11:51:04.024Z,13.67
2023-04-09T11:56:07.929Z,13.35
2023-04-09T12:01:11.399Z,13.42
2023-04-09T12:06:16.264Z,13.01
2023-04-09T12:11:22.063Z,13.50
2023-04-09T12:16:25.409Z,13.27
2023-04-09T12:21:43.661Z,15.87
2023-04-09T12:26:48.977Z,18.20
2023-04-09T12:31:54.932Z,16.72
2023-04-09T12:36:58.311Z,14.75
2023-04-09T12:42:03.072Z,16.84
2023-04-09T12:47:08.783Z,15.98
2023-04-09T12:52:12.167Z,15.77
2023-04-09T12:57:16.832Z,16.61
2023-04-09T13:02:22.875Z,17.71
2023-04-09T13:07:29.560Z,15.22
2023-04-09T13:12:34.238Z,14.27
2023-04-09T13:17:37.578Z,13.75
2023-04-09T13:22:41.339Z,13.18
2023-04-09T13:27:46.112Z,12.35
2023-04-09T13:32:49.605Z,14.16
2023-04-09T13:37:52.931Z,14.93
2023-04-09T13:42:57.767Z,14.05
2023-04-09T13:48:01.133Z,14.35
2023-04-09T13:53:05.391Z,16.04
2023-04-09T13:58:10.357Z,14.01
2023-04-09T14:03:14.417Z,13.31
2023-04-09T14:08:20.277Z,12.64
2023-04-09T14:13:27.228Z,14.20
2023-04-09T14:18:33.023Z,14.50
2023-04-09T14:23:38.812Z,12.77
2023-04-09T14:28:44.939Z,12.03
2023-04-09T14:33:48.795Z,12.11
2023-04-09T14:38:54.111Z,11.84
2023-04-09T14:44:03.147Z,10.46
2023-04-09T14:49:06.482Z,10.73
2023-04-09T14:54:09.946Z,9.44
2023-04-09T14:59:14.670Z,9.29
2023-04-09T15:04:18.108Z,10.24
2023-04-09T15:09:21.589Z,10.92
2023-04-09T15:14:32.011Z,11.15
2023-04-09T15:19:35.418Z,12.86
2023-04-09T15:24:38.970Z,9.90
2023-04-09T15:29:43.663Z,9.77
2023-04-09T15:34:47.073Z,10.43
2023-04-09T15:39:52.552Z,9.11
2023-04-09T15:44:57.365Z,8.95
2023-04-09T15:50:03.094Z,9.72
2023-04-09T15:55:07.092Z,9.97
2023-04-09T16:00:12.393Z,9.19
2023-04-09T16:05:15.940Z,8.73
2023-04-09T16:10:19.311Z,8.80
2023-04-09T16:15:24.033Z,8.88
2023-04-09T16:20:29.359Z,9.06
2023-04-09T16:25:32.669Z,10.46
2023-04-09T16:30:37.686Z,9.23
2023-04-09T16:35:43.369Z,10.11
2023-04-09T16:40:46.805Z,10.44
2023-04-09T16:45:54.634Z,9.23
2023-04-09T16:50:58.259Z,8.51
2023-04-09T16:56:01.861Z,11.67
2023-04-09T17:01:08.938Z,10.11
2023-04-09T17:06:12.326Z,10.79
2023-04-09T17:11:18.193Z,11.05
2023-04-09T17:16:22.919Z,9.58
2023-04-09T17:21:26.475Z,10.38
2023-04-09T17:26:29.938Z,10.99
2023-04-09T17:31:34.685Z,11.48
2023-04-09T17:36:38.126Z,12.27
2023-04-09T17:41:42.558Z,18.35
2023-04-09T17:46:47.514Z,17.97
2023-04-09T17:51:50.871Z,16.76
2023-04-09T17:56:54.528Z,17.98
2023-04-09T18:02:02.362Z,21.08
2023-04-09T18:07:06.013Z,20.55
2023-04-09T18:12:09.314Z,22.05
2023-04-09T18:17:16.546Z,22.73
2023-04-09T18:22:21.886Z,21.28
2023-04-09T18:27:28.266Z,21.74
2023-04-09T18:32:35.267Z,21.64
2023-04-09T18:37:41.277Z,22.19
2023-04-09T18:42:44.827Z,21.10
2023-04-09T18:47:49.780Z,81377.14
2023-04-09T18:52:55.992Z,138579.98
2023-04-09T18:57:59.500Z,138024.03
2023-04-09T19:03:07.342Z,134934.45
2023-04-09T19:08:10.986Z,137600.77
2023-04-09T19:13:16.934Z,138321.03
2023-04-09T19:18:21.685Z,138407.03
2023-04-09T19:23:25.712Z,138428.34
2023-04-09T19:28:29.143Z,138390.78
2023-04-09T19:33:33.891Z,138061.58
2023-04-09T19:38:37.339Z,137458.77
2023-04-09T19:43:42.038Z,138279.92
2023-04-09T19:48:48.531Z,138369.70
2023-04-09T19:53:53.993Z,137613.28
2023-04-09T19:58:59.904Z,137994.45
2023-04-09T20:04:05.195Z,138766.53
2023-04-09T20:09:12.489Z,138975.86
2023-04-09T20:14:15.826Z,138379.64
2023-04-09T20:19:22.218Z,138097.58
2023-04-09T20:24:28.554Z,138178.73
2023-04-09T20:29:34.990Z,107886.95
2023-04-09T20:34:39.838Z,138030.78
2023-04-09T20:39:43.214Z,138539.95
2023-04-09T20:44:46.726Z,137131.13
2023-04-09T20:49:53.203Z,137354.69
2023-04-09T20:54:59.102Z,137370.58
2023-04-09T21:00:02.715Z,137539.00
2023-04-09T21:05:19.539Z,137499.92
2023-04-09T21:10:26.464Z,137715.69
2023-04-09T21:15:29.866Z,138181.95
2023-04-09T21:20:34.538Z,138334.05
2023-04-09T21:25:37.918Z,138435.89
2023-04-09T21:30:41.310Z,138079.45
2023-04-09T21:35:46.096Z,138101.89
2023-04-09T21:40:49.510Z,137966.63
2023-04-09T21:45:55.087Z,137878.83
2023-04-09T21:51:02.458Z,137503.19
2023-04-09T21:56:08.653Z,137291.17
2023-04-09T22:01:22.652Z,137657.33
2023-04-09T22:06:33.184Z,137377.38
2023-04-09T22:11:41.123Z,137667.83
2023-04-09T22:16:46.649Z,137846.98
2023-04-09T22:21:53.842Z,137974.83
2023-04-09T22:26:59.078Z,138035.59
2023-04-09T22:32:03.867Z,138064.41
2023-04-09T22:37:08.555Z,138287.95
2023-04-09T22:42:14.207Z,137808.80
2023-04-09T22:47:17.578Z,137541.09
2023-04-09T22:52:22.359Z,137948.39
2023-04-09T22:57:25.908Z,137984.80
2023-04-09T23:02:29.433Z,137921.23
2023-04-09T23:07:34.287Z,137463.53
2023-04-09T23:12:37.612Z,137671.28
2023-04-09T23:17:41.619Z,137863.27
2023-04-09T23:22:48.683Z,138425.48
2023-04-09T23:27:54.520Z,138009.02
2023-04-09T23:32:58.167Z,137701.73
2023-04-09T23:38:02.986Z,137505.84
2023-04-09T23:43:06.330Z,137595.95
2023-04-09T23:48:09.886Z,137473.20
2023-04-09T23:53:17.723Z,136680.86
2023-04-09T23:58:21.448Z,137297.09
